This is the latest recevied weather packets stored in our database for station/object AC8JV. If no packets are shown the sender has not sent any weather packets the latest 1 day(s).
| Time | Temp. | Humidity | Pressure | Rain* | Wind** | Luminosity | Snow |
|---|---|---|---|---|---|---|---|
| 1836274380 | 19.44° C | 77% | 1020.7 hPa | 0 mm | 2.24 m/s, 101° | - | - |
| 1836274229 | 18.89° C | 77% | 1020.8 hPa | 0 mm | 2.68 m/s, 71° | - | - |
| 1778049010 | 5.56° C | 69% | 1011.3 hPa | 0 mm | 1.79 m/s, 316° | - | - |
| 1778048407 | 6.11° C | 70% | 1011.4 hPa | 0 mm | 1.79 m/s, 297° | - | - |
| 1778047804 | 6.11° C | 70% | 1011.5 hPa | 0 mm | 1.79 m/s, 334° | - | - |
| 1778047201 | 6.11° C | 70% | 1011.7 hPa | 0 mm | 1.34 m/s, 355° | - | - |
| 1778046619 | 6.11° C | 71% | 1011.7 hPa | 0 mm | 2.24 m/s, 289° | - | - |
| 1778046008 | 6.11° C | 70% | 1011.8 hPa | 0 mm | 2.24 m/s, 296° | - | - |
| 1778045418 | 6.11° C | 71% | 1011.6 hPa | 0 mm | 3.13 m/s, 274° | - | - |
| 1778044803 | 6.11° C | 72% | 1011.6 hPa | 0 mm | 2.68 m/s, 289° | - | - |
| 1778044211 | 6.11° C | 71% | 1011.9 hPa | 0 mm | 3.58 m/s, 284° | - | - |
| 1778043606 | 6.11° C | 69% | 1011.5 hPa | 0 mm | 1.79 m/s, 290° | - | - |
| 1778043021 | 6.11° C | 69% | 1011.3 hPa | 0 mm | 2.24 m/s, 294° | - | - |
| 1778042423 | 6.11° C | 68% | 1011.4 hPa | 0 mm | 2.68 m/s, 286° | - | - |
| 1778041808 | 6.11° C | 67% | 1010.8 hPa | 0 mm | 1.79 m/s, 287° | - | - |
| 1778041202 | 6.11° C | 69% | 1011 hPa | 0 mm | 2.24 m/s, 279° | - | - |
| 1778040610 | 6.11° C | 69% | 1010.6 hPa | 0 mm | 1.79 m/s, 292° | - | - |
| 1778040011 | 6.11° C | 71% | 1011 hPa | 0 mm | 1.79 m/s, 261° | - | - |
| 1778039409 | 6.11° C | 73% | 1010.7 hPa | 0 mm | 1.34 m/s, 275° | - | - |
| 1778038805 | 6.11° C | 75% | 1010.8 hPa | 0 mm | 1.34 m/s, 277° | - | - |
| 1778038204 | 6.11° C | 73% | 1010.6 hPa | 0 mm | 1.34 m/s, 273° | - | - |
| 1778037605 | 6.11° C | 74% | 1010.4 hPa | 0 mm | 0.89 m/s, 273° | - | - |
| 1778037008 | 6.11° C | 74% | 1010.8 hPa | 0 mm | 0.89 m/s, 273° | - | - |
| 1778036408 | 6.11° C | 74% | 1010.9 hPa | 0 mm | 0.89 m/s, 273° | - | - |
| 1778035801 | 6.11° C | 75% | 1010.7 hPa | 0 mm | 0.89 m/s, 273° | - | - |
* Rain latest hour (hover to see other rain measurements)
** Current wind speed in m/s (hover to see current wind gust speed)